createdAt,value
2024-04-17T00:00:07.498Z,7.43
2024-04-17T00:02:35.460Z,7.42
2024-04-17T00:05:03.353Z,7.36
2024-04-17T00:07:31.194Z,7.31
2024-04-17T00:09:58.966Z,7.27
2024-04-17T00:12:26.700Z,7.26
2024-04-17T00:14:54.638Z,7.25
2024-04-17T00:17:22.565Z,7.23
2024-04-17T00:19:50.655Z,7.23
2024-04-17T00:22:18.716Z,7.22
2024-04-17T00:24:46.665Z,7.19
2024-04-17T00:27:14.464Z,7.14
2024-04-17T00:29:42.380Z,7.09
2024-04-17T00:32:10.146Z,7.07
2024-04-17T00:34:38.065Z,7.06
2024-04-17T00:37:05.918Z,7.06
2024-04-17T00:39:33.743Z,7.06
2024-04-17T00:42:01.596Z,7.05
2024-04-17T00:44:29.739Z,7.03
2024-04-17T00:46:57.700Z,6.99
2024-04-17T00:49:25.613Z,6.95
2024-04-17T00:51:53.714Z,6.91
2024-04-17T00:54:22.191Z,6.90
2024-04-17T00:56:50.108Z,6.88
2024-04-17T00:59:17.971Z,6.87
2024-04-17T01:01:45.827Z,6.87
2024-04-17T01:04:13.862Z,6.88
2024-04-17T01:06:43.727Z,6.89
2024-04-17T01:09:11.469Z,6.89
2024-04-17T01:11:40.567Z,6.86
2024-04-17T01:14:09.899Z,6.84
2024-04-17T01:16:38.066Z,6.84
2024-04-17T01:19:06.285Z,6.84
2024-04-17T01:21:34.688Z,6.88
2024-04-17T01:24:02.310Z,6.92
2024-04-17T01:26:30.049Z,6.98
2024-04-17T01:28:57.998Z,7.02
2024-04-17T01:31:25.660Z,7.03
2024-04-17T01:33:53.356Z,7.00
2024-04-17T01:36:21.059Z,6.97
2024-04-17T01:38:48.959Z,6.96
2024-04-17T01:41:16.720Z,6.97
2024-04-17T01:43:44.382Z,6.99
2024-04-17T01:46:12.287Z,7.01
2024-04-17T01:48:40.056Z,7.00
2024-04-17T01:51:07.749Z,6.97
2024-04-17T01:53:35.660Z,6.96
2024-04-17T01:56:03.504Z,6.95
2024-04-17T01:58:31.318Z,6.93
2024-04-17T02:01:05.088Z,6.90
2024-04-17T02:03:34.724Z,6.85
2024-04-17T02:06:02.406Z,6.81
2024-04-17T02:08:30.144Z,6.78
2024-04-17T02:10:57.796Z,6.76
2024-04-17T02:13:25.530Z,6.76
2024-04-17T02:15:53.165Z,6.77
2024-04-17T02:18:21.463Z,6.77
2024-04-17T02:20:49.226Z,6.77
2024-04-17T02:23:16.844Z,6.76
2024-04-17T02:25:44.592Z,6.73
2024-04-17T02:28:12.503Z,6.68
2024-04-17T02:30:40.788Z,6.63
2024-04-17T02:33:09.729Z,6.57
2024-04-17T02:35:37.520Z,6.49
2024-04-17T02:38:05.409Z,6.41
2024-04-17T02:40:33.202Z,6.34
2024-04-17T02:43:01.376Z,6.28
2024-04-17T02:45:29.107Z,6.20
2024-04-17T02:47:57.517Z,6.11
2024-04-17T02:50:25.213Z,6.04
2024-04-17T02:52:52.899Z,5.97
2024-04-17T02:55:20.717Z,5.89
2024-04-17T02:57:48.489Z,5.82
2024-04-17T03:00:18.600Z,5.76
2024-04-17T03:02:46.288Z,5.72
2024-04-17T03:05:14.197Z,5.67
2024-04-17T03:07:45.390Z,5.61
2024-04-17T03:10:13.245Z,5.58
2024-04-17T03:12:40.957Z,5.57
2024-04-17T03:15:08.706Z,5.56
2024-04-17T03:17:36.442Z,5.54
2024-04-17T03:20:04.990Z,5.53
2024-04-17T03:22:32.906Z,5.46
2024-04-17T03:25:00.695Z,5.36
2024-04-17T03:27:28.433Z,5.30
2024-04-17T03:29:56.316Z,5.26
2024-04-17T03:32:24.292Z,5.23
2024-04-17T03:34:52.366Z,5.17
2024-04-17T03:37:20.256Z,5.13
2024-04-17T03:39:48.163Z,5.09
2024-04-17T03:42:17.390Z,5.02
2024-04-17T03:44:46.293Z,4.94
2024-04-17T03:47:14.149Z,4.91
2024-04-17T03:49:42.107Z,4.88
2024-04-17T03:52:10.009Z,4.83
2024-04-17T03:54:37.849Z,4.80
2024-04-17T03:57:05.716Z,4.77
2024-04-17T03:59:33.783Z,4.71
2024-04-17T04:02:06.451Z,4.64
2024-04-17T04:04:34.738Z,4.59
2024-04-17T04:07:02.903Z,4.56
2024-04-17T04:09:30.756Z,4.51
2024-04-17T04:11:58.698Z,4.46
2024-04-17T04:14:26.642Z,4.42
2024-04-17T04:16:54.896Z,4.37
2024-04-17T04:19:23.066Z,4.32
2024-04-17T04:21:50.916Z,4.28
2024-04-17T04:24:18.788Z,4.23
2024-04-17T04:26:46.578Z,4.18
2024-04-17T04:29:14.315Z,4.15
2024-04-17T04:31:42.236Z,4.14
2024-04-17T04:34:10.101Z,4.13
2024-04-17T04:36:37.935Z,4.08
2024-04-17T04:39:06.219Z,4.04
2024-04-17T04:41:34.239Z,3.97
2024-04-17T04:44:02.076Z,3.93
2024-04-17T04:46:29.966Z,3.87
2024-04-17T04:48:57.827Z,3.83
2024-04-17T04:51:25.788Z,3.80
2024-04-17T04:53:53.657Z,3.74
2024-04-17T04:56:21.522Z,3.68
2024-04-17T04:58:49.564Z,3.66
2024-04-17T05:01:18.778Z,3.65
2024-04-17T05:03:46.634Z,3.65
2024-04-17T05:06:14.473Z,3.64
2024-04-17T05:08:42.307Z,3.61
2024-04-17T05:11:13.055Z,3.56
2024-04-17T05:13:41.110Z,3.54
2024-04-17T05:16:10.921Z,3.51
2024-04-17T05:18:39.054Z,3.49
2024-04-17T05:21:06.994Z,3.48
2024-04-17T05:23:34.809Z,3.45
2024-04-17T05:26:02.753Z,3.45
2024-04-17T05:28:30.670Z,3.43
2024-04-17T05:30:59.606Z,3.37
2024-04-17T05:33:27.818Z,3.32
2024-04-17T05:35:55.606Z,3.30
2024-04-17T05:38:23.559Z,3.28
2024-04-17T05:40:51.491Z,3.29
2024-04-17T05:43:19.434Z,3.30
2024-04-17T05:45:47.682Z,3.30
2024-04-17T05:48:15.725Z,3.29
2024-04-17T05:50:43.699Z,3.29
2024-04-17T05:53:11.465Z,3.34
2024-04-17T05:55:42.281Z,3.38
2024-04-17T05:58:10.142Z,3.41
2024-04-17T06:00:38.205Z,3.45
2024-04-17T06:03:06.411Z,3.46
2024-04-17T06:05:34.974Z,3.49
2024-04-17T06:08:02.861Z,3.54
2024-04-17T06:10:30.926Z,3.58
2024-04-17T06:12:59.364Z,3.64
2024-04-17T06:15:27.188Z,3.73
2024-04-17T06:17:57.047Z,3.79
2024-04-17T06:20:26.548Z,3.81
2024-04-17T06:22:54.341Z,3.78
2024-04-17T06:25:22.292Z,3.73
2024-04-17T06:27:50.297Z,3.73
2024-04-17T06:30:18.645Z,3.75
2024-04-17T06:32:46.651Z,3.78
2024-04-17T06:35:14.967Z,3.83
2024-04-17T06:37:42.905Z,3.86
2024-04-17T06:40:10.863Z,3.88
2024-04-17T06:42:38.892Z,3.94
2024-04-17T06:45:07.658Z,4.01
2024-04-17T06:47:35.501Z,4.06
2024-04-17T06:50:04.243Z,4.08
2024-04-17T06:52:32.238Z,4.08
2024-04-17T06:55:00.202Z,4.07
2024-04-17T06:57:28.124Z,4.08
2024-04-17T06:59:56.082Z,4.11
2024-04-17T07:02:24.216Z,4.14
2024-04-17T07:04:52.413Z,4.14
2024-04-17T07:07:20.739Z,4.16
2024-04-17T07:09:48.663Z,4.18
2024-04-17T07:12:17.550Z,4.19
2024-04-17T07:14:45.680Z,4.19
2024-04-17T07:17:15.414Z,4.20
2024-04-17T07:19:44.556Z,4.22
2024-04-17T07:22:12.422Z,4.25
2024-04-17T07:24:40.280Z,4.30
2024-04-17T07:27:08.285Z,4.32
2024-04-17T07:29:36.139Z,4.37
2024-04-17T07:32:04.493Z,4.43
2024-04-17T07:34:32.588Z,4.46
2024-04-17T07:37:00.305Z,4.49
2024-04-17T07:39:28.139Z,4.52
2024-04-17T07:41:56.738Z,4.58
2024-04-17T07:44:24.862Z,4.62
2024-04-17T07:46:52.698Z,4.67
2024-04-17T07:49:20.519Z,4.71
2024-04-17T07:51:48.466Z,4.74
2024-04-17T07:54:16.297Z,4.76
2024-04-17T07:56:44.504Z,4.78
2024-04-17T07:59:12.384Z,4.80
2024-04-17T08:01:40.330Z,4.82
2024-04-17T08:04:08.235Z,4.83
2024-04-17T08:06:36.424Z,4.86
2024-04-17T08:09:04.564Z,4.88
2024-04-17T08:11:38.257Z,4.88
2024-04-17T08:14:07.139Z,4.87
2024-04-17T08:16:35.158Z,4.87
2024-04-17T08:19:03.077Z,4.90
2024-04-17T08:21:32.157Z,4.96
2024-04-17T08:24:00.166Z,5.03
2024-04-17T08:26:28.070Z,5.08
2024-04-17T08:28:56.187Z,5.14
2024-04-17T08:31:24.353Z,5.22
2024-04-17T08:33:52.238Z,5.27
2024-04-17T08:36:20.303Z,5.27
2024-04-17T08:38:48.249Z,5.26
2024-04-17T08:41:15.996Z,5.27
2024-04-17T08:43:45.133Z,5.33
2024-04-17T08:46:14.702Z,5.42
2024-04-17T08:48:44.044Z,5.50
2024-04-17T08:51:12.988Z,5.53
2024-04-17T08:53:41.478Z,5.54
2024-04-17T08:56:10.189Z,5.55
2024-04-17T08:58:38.287Z,5.59
2024-04-17T09:01:07.912Z,5.67
2024-04-17T09:03:39.621Z,5.78
2024-04-17T09:06:10.239Z,5.89
2024-04-17T09:08:38.613Z,5.95
2024-04-17T09:11:09.344Z,5.99
2024-04-17T09:13:37.489Z,5.97
2024-04-17T09:16:05.454Z,5.93
2024-04-17T09:18:34.323Z,5.92
2024-04-17T09:21:02.177Z,5.92
2024-04-17T09:23:30.042Z,5.92
2024-04-17T09:25:58.085Z,5.94
2024-04-17T09:28:25.977Z,5.99
2024-04-17T09:30:53.973Z,6.04
2024-04-17T09:33:21.944Z,6.09
2024-04-17T09:35:52.614Z,6.12
2024-04-17T09:38:21.387Z,6.14
2024-04-17T09:40:49.166Z,6.13
2024-04-17T09:43:29.256Z,6.12
2024-04-17T09:46:09.057Z,6.15
2024-04-17T09:48:38.693Z,6.20
2024-04-17T09:51:11.949Z,6.23
2024-04-17T09:53:50.980Z,6.25
2024-04-17T09:56:19.728Z,6.29
2024-04-17T09:58:56.807Z,6.35
2024-04-17T10:01:33.157Z,6.41
2024-04-17T10:04:02.742Z,6.44
2024-04-17T10:06:31.775Z,6.45
2024-04-17T10:09:00.320Z,6.46
2024-04-17T10:11:28.871Z,6.48
2024-04-17T10:13:59.212Z,6.53
2024-04-17T10:16:27.400Z,6.53
2024-04-17T10:18:55.563Z,6.52
2024-04-17T10:21:27.386Z,6.49
2024-04-17T10:24:02.458Z,6.48
2024-04-17T10:26:59.397Z,6.46
2024-04-17T10:29:29.427Z,6.44
2024-04-17T10:31:57.415Z,6.42
2024-04-17T10:34:27.535Z,6.40
2024-04-17T10:36:59.888Z,6.40
2024-04-17T10:39:28.878Z,6.44
2024-04-17T10:42:01.250Z,6.47
2024-04-17T10:44:29.706Z,6.52
2024-04-17T10:47:07.232Z,6.57
2024-04-17T10:49:41.424Z,6.58
2024-04-17T10:52:10.260Z,6.57
2024-04-17T10:54:38.780Z,6.58
2024-04-17T10:57:07.260Z,6.59
2024-04-17T10:59:35.206Z,6.60
2024-04-17T11:02:03.145Z,6.62
2024-04-17T11:04:31.423Z,6.64
2024-04-17T11:06:59.363Z,6.62
2024-04-17T11:09:27.239Z,6.59
2024-04-17T11:11:55.955Z,6.59
2024-04-17T11:14:23.927Z,6.62
2024-04-17T11:16:51.796Z,6.64
2024-04-17T11:19:19.893Z,6.69
2024-04-17T11:21:50.349Z,6.72
2024-04-17T11:24:19.219Z,6.72
2024-04-17T11:26:47.803Z,6.71
2024-04-17T11:29:33.056Z,6.70
2024-04-17T11:32:06.288Z,6.67
2024-04-17T11:34:34.216Z,6.68
2024-04-17T11:37:08.614Z,6.70
2024-04-17T11:39:39.139Z,6.69
2024-04-17T11:42:10.504Z,6.71
2024-04-17T11:44:39.215Z,6.76
2024-04-17T11:47:15.170Z,6.81
2024-04-17T11:49:43.771Z,6.88
2024-04-17T11:52:13.376Z,6.94
2024-04-17T11:54:41.758Z,7.03
2024-04-17T11:57:14.483Z,7.10
2024-04-17T11:59:45.680Z,7.14
2024-04-17T12:02:13.388Z,7.18
2024-04-17T12:04:43.712Z,7.18
2024-04-17T12:07:11.967Z,7.17
2024-04-17T12:09:39.882Z,7.16
2024-04-17T12:12:07.786Z,7.15
2024-04-17T12:14:35.613Z,7.14
2024-04-17T12:17:03.521Z,7.12
2024-04-17T12:19:31.489Z,7.12
2024-04-17T12:22:00.683Z,7.13
2024-04-17T12:24:48.654Z,7.13
2024-04-17T12:27:17.230Z,7.14
2024-04-17T12:29:45.161Z,7.15
2024-04-17T12:32:13.141Z,7.19
2024-04-17T12:34:41.134Z,7.24
2024-04-17T12:37:11.047Z,7.27
2024-04-17T12:39:39.162Z,7.28
2024-04-17T12:42:07.289Z,7.28
2024-04-17T12:44:35.137Z,7.29
2024-04-17T12:47:03.620Z,7.32
2024-04-17T12:49:31.540Z,7.36
2024-04-17T12:51:59.814Z,7.41
2024-04-17T12:54:27.752Z,7.42
2024-04-17T12:56:55.567Z,7.41
2024-04-17T12:59:23.349Z,7.37
2024-04-17T13:01:51.159Z,7.32
2024-04-17T13:04:19.220Z,7.27
2024-04-17T13:06:49.915Z,7.25
2024-04-17T13:09:17.901Z,7.19
2024-04-17T13:11:46.482Z,7.15
2024-04-17T13:14:14.198Z,7.12
2024-04-17T13:16:41.954Z,7.07
2024-04-17T13:19:09.680Z,7.03
2024-04-17T13:21:37.653Z,6.98
2024-04-17T13:24:06.551Z,6.93
2024-04-17T13:26:34.569Z,6.88
2024-04-17T13:29:02.559Z,6.85
2024-04-17T13:31:30.508Z,6.84
2024-04-17T13:33:58.542Z,6.85
2024-04-17T13:36:26.480Z,6.89
2024-04-17T13:38:54.850Z,6.90
2024-04-17T13:41:22.789Z,6.92
2024-04-17T13:43:50.608Z,6.96
2024-04-17T13:46:19.815Z,7.00
2024-04-17T13:48:49.059Z,7.04
2024-04-17T13:51:19.578Z,7.07
2024-04-17T13:53:53.825Z,7.07
2024-04-17T13:56:23.552Z,7.07
2024-04-17T13:58:51.531Z,7.08
2024-04-17T14:01:19.434Z,7.08
2024-04-17T14:03:47.396Z,7.10
2024-04-17T14:06:15.468Z,7.12
2024-04-17T14:08:43.447Z,7.14
2024-04-17T14:11:11.227Z,7.14
2024-04-17T14:13:39.111Z,7.12
2024-04-17T14:16:07.504Z,7.09
2024-04-17T14:18:35.783Z,7.09
2024-04-17T14:21:07.778Z,7.09
2024-04-17T14:23:35.590Z,7.09
2024-04-17T14:26:03.518Z,7.10
2024-04-17T14:28:32.164Z,7.11
2024-04-17T14:31:03.983Z,7.15
2024-04-17T14:33:34.668Z,7.17
2024-04-17T14:36:07.000Z,7.16
2024-04-17T14:38:39.793Z,7.16
2024-04-17T14:41:08.743Z,7.14
2024-04-17T14:43:37.282Z,7.12
2024-04-17T14:46:07.096Z,7.11
2024-04-17T14:48:35.735Z,7.13
2024-04-17T14:51:08.830Z,7.17
2024-04-17T14:53:40.628Z,7.18
2024-04-17T14:56:09.046Z,7.18
2024-04-17T14:58:38.286Z,7.18
2024-04-17T15:01:08.152Z,7.16
2024-04-17T15:03:37.360Z,7.13
2024-04-17T15:06:07.432Z,7.11
2024-04-17T15:08:36.783Z,7.11
2024-04-17T15:11:09.700Z,7.12
2024-04-17T15:13:38.600Z,7.14
2024-04-17T15:16:11.267Z,7.16
2024-04-17T15:18:43.359Z,7.16
2024-04-17T15:21:13.860Z,7.16
2024-04-17T15:23:45.899Z,7.16
2024-04-17T15:26:15.543Z,7.17
2024-04-17T15:28:43.885Z,7.17
2024-04-17T15:31:16.329Z,7.18
2024-04-17T15:33:48.905Z,7.18
2024-04-17T15:36:17.811Z,7.19
2024-04-17T15:38:48.704Z,7.18
2024-04-17T15:41:16.458Z,7.16
2024-04-17T15:43:45.691Z,7.15
2024-04-17T15:46:15.456Z,7.14
2024-04-17T15:48:44.798Z,7.11
2024-04-17T15:51:17.659Z,7.11
2024-04-17T15:53:47.201Z,7.10
2024-04-17T15:56:20.250Z,7.07
2024-04-17T15:58:49.821Z,7.05
2024-04-17T16:01:19.025Z,7.02
2024-04-17T16:03:52.420Z,6.99
